createdAt,value
2023-05-22T03:36:47.471Z,10.40
2023-05-22T03:39:28.144Z,8.30
2023-05-22T03:42:34.482Z,8.20
2023-05-22T03:45:52.035Z,7.90
2023-05-22T03:48:31.410Z,8.50
2023-05-22T03:54:56.347Z,8.50
2023-05-22T04:01:49.946Z,7.60
2023-05-22T04:04:30.336Z,7.80
2023-05-22T04:10:54.576Z,7.40
2023-05-22T04:22:45.903Z,6.60
2023-05-22T04:26:20.237Z,6.90
2023-05-22T04:28:59.703Z,6.30
2023-05-22T04:31:36.037Z,6.10
2023-05-22T04:46:02.577Z,6.40
2023-05-22T04:48:43.992Z,6.30
2023-05-22T04:52:04.874Z,6.70
2023-05-22T04:59:17.309Z,6.10
2023-05-22T05:01:50.537Z,6.00
2023-05-22T05:04:28.793Z,6.20
2023-05-22T05:07:02.623Z,6.80
2023-05-22T05:09:41.689Z,9.30
2023-05-22T05:12:14.095Z,7.80
2023-05-22T05:18:40.626Z,5.30
2023-05-22T05:21:12.801Z,6.00
2023-05-22T05:23:52.138Z,5.10
2023-05-22T05:26:25.155Z,6.00
2023-05-22T05:29:04.768Z,4.90
2023-05-22T05:36:29.418Z,6.50
2023-05-22T05:40:03.355Z,7.90
2023-05-22T05:42:37.025Z,5.90
2023-05-22T05:45:12.841Z,7.50
2023-05-22T05:47:45.483Z,5.50
2023-05-22T05:50:18.213Z,11.20
2023-05-22T05:52:51.742Z,10.50
2023-05-22T05:59:53.853Z,7.50
2023-05-22T06:02:51.710Z,4.60
2023-05-22T06:06:09.443Z,4.80
2023-05-22T06:09:55.842Z,5.20
2023-05-22T06:12:51.049Z,6.20
2023-05-22T06:15:38.963Z,4.30
2023-05-22T06:18:18.168Z,4.50
2023-05-22T06:20:50.495Z,4.50
2023-05-22T06:23:28.875Z,4.40
2023-05-22T06:29:16.305Z,9.90
2023-05-22T06:31:49.081Z,5.30
2023-05-22T06:43:41.450Z,4.30
2023-05-22T06:46:43.634Z,3.80
2023-05-22T06:49:24.545Z,4.20
2023-05-22T06:52:35.189Z,3.40
2023-05-22T06:55:14.227Z,3.80
2023-05-22T07:02:42.184Z,3.50
2023-05-22T07:06:02.486Z,3.50
2023-05-22T07:08:35.110Z,4.30
2023-05-22T07:11:14.253Z,4.20
2023-05-22T07:13:47.115Z,3.60
2023-05-22T07:16:26.763Z,3.70
2023-05-22T07:19:00.133Z,3.60
2023-05-22T07:21:39.436Z,3.30
2023-05-22T07:24:12.247Z,3.90
2023-05-22T07:26:46.851Z,4.00
2023-05-22T07:34:15.589Z,4.10
2023-05-22T07:36:49.158Z,5.30
2023-05-22T07:47:05.653Z,2.90
2023-05-22T07:49:40.816Z,3.20
2023-05-22T07:52:15.784Z,3.30
2023-05-22T07:55:33.438Z,3.20
2023-05-22T07:58:08.773Z,3.20
2023-05-22T08:04:30.365Z,3.00
2023-05-22T08:07:02.821Z,3.10
2023-05-22T08:09:35.032Z,2.60
2023-05-22T08:12:49.005Z,2.50
2023-05-22T08:15:21.580Z,2.70
2023-05-22T08:22:26.437Z,2.90
2023-05-22T08:24:58.518Z,2.60
2023-05-22T08:32:08.501Z,2.80
2023-05-22T08:34:47.997Z,2.70
2023-05-22T08:37:21.300Z,3.30
2023-05-22T08:40:00.353Z,3.00
2023-05-22T08:42:32.570Z,4.90
2023-05-22T08:49:37.701Z,4.00
2023-05-22T08:55:37.298Z,3.10
2023-05-22T08:58:09.861Z,3.10
2023-05-22T09:00:42.353Z,3.70
2023-05-22T09:03:34.415Z,3.00
2023-05-22T09:09:43.426Z,3.90
2023-05-22T09:12:15.550Z,4.50
2023-05-22T09:15:09.943Z,3.60
2023-05-22T09:17:43.502Z,3.90
2023-05-22T09:20:16.580Z,3.40
2023-05-22T09:23:02.893Z,3.30
2023-05-22T09:30:27.583Z,3.60
2023-05-22T09:33:02.024Z,10.50
2023-05-22T09:35:49.887Z,6.10
2023-05-22T09:38:31.422Z,9.00
2023-05-22T09:42:27.444Z,5.00
2023-05-22T09:49:21.684Z,4.30
2023-05-22T09:51:57.570Z,4.30
2023-05-22T09:55:13.683Z,7.90
2023-05-22T09:57:48.419Z,3.60
2023-05-22T10:00:21.765Z,3.40
2023-05-22T10:07:26.059Z,3.70
2023-05-22T10:23:10.960Z,4.10
2023-05-22T10:25:51.952Z,3.70
2023-05-22T10:35:50.362Z,3.30
2023-05-22T10:52:22.086Z,3.10
2023-05-22T10:54:57.607Z,7.40
2023-05-22T11:01:28.571Z,11.60
2023-05-22T11:08:39.581Z,3.10
2023-05-22T11:11:15.952Z,9.00
2023-05-22T11:14:33.665Z,3.70
2023-05-22T11:17:15.001Z,4.60
2023-05-22T11:25:38.155Z,3.10
2023-05-22T11:28:11.820Z,4.10
2023-05-22T11:30:44.780Z,3.50
2023-05-22T11:33:17.579Z,4.00
2023-05-22T11:39:42.318Z,4.30
2023-05-22T11:42:50.651Z,3.60
2023-05-22T11:45:23.359Z,2.90
2023-05-22T11:47:55.594Z,3.30
2023-05-22T11:53:58.170Z,3.90
2023-05-22T11:56:30.778Z,3.70
2023-05-22T12:02:57.655Z,3.30
2023-05-22T12:05:32.819Z,4.20
2023-05-22T12:08:50.117Z,3.50
2023-05-22T12:15:29.044Z,3.80
2023-05-22T12:18:01.917Z,3.50
2023-05-22T12:20:38.678Z,3.60
2023-05-22T12:23:14.086Z,3.60
2023-05-22T12:30:24.216Z,4.50
2023-05-22T12:41:37.618Z,4.50
2023-05-22T12:48:42.931Z,3.30
2023-05-22T12:51:41.622Z,5.50
2023-05-22T13:03:01.272Z,10.40
2023-05-22T13:05:50.404Z,4.00
2023-05-22T13:15:59.775Z,3.40
2023-05-22T13:18:32.447Z,3.90
2023-05-22T13:21:53.186Z,3.20
2023-05-22T13:24:25.666Z,9.60
2023-05-22T13:26:59.234Z,3.90
2023-05-22T13:38:26.767Z,3.60
2023-05-22T13:41:32.639Z,2.90
2023-05-22T13:53:04.055Z,3.40
2023-05-22T13:56:16.580Z,4.90
2023-05-22T14:03:17.809Z,3.10
2023-05-22T14:05:50.179Z,3.40
2023-05-22T14:08:22.201Z,3.10
2023-05-22T14:11:01.268Z,3.40
2023-05-22T14:13:58.670Z,3.50
2023-05-22T14:16:32.530Z,4.40
2023-05-22T14:19:05.026Z,4.90
2023-05-22T14:25:24.762Z,3.30
2023-05-22T14:31:51.938Z,5.70
2023-05-22T14:34:25.549Z,3.70
2023-05-22T14:36:58.418Z,3.80
2023-05-22T14:40:18.855Z,3.50
2023-05-22T14:45:50.115Z,3.60
2023-05-22T14:51:28.886Z,3.50
2023-05-22T14:54:02.127Z,3.00
2023-05-22T14:56:34.511Z,3.50
2023-05-22T14:59:07.985Z,3.90
2023-05-22T15:01:45.141Z,4.20
2023-05-22T15:04:42.564Z,4.20
2023-05-22T15:07:16.327Z,3.70
2023-05-22T15:10:00.943Z,3.50
2023-05-22T15:17:01.855Z,4.00
2023-05-22T15:19:34.006Z,3.40
2023-05-22T15:25:40.075Z,3.30
2023-05-22T15:28:12.473Z,2.90
2023-05-22T15:37:52.477Z,3.30
2023-05-22T15:44:10.838Z,3.50
2023-05-22T15:46:43.107Z,3.70
2023-05-22T15:49:15.352Z,4.10
2023-05-22T15:55:16.035Z,3.60
2023-05-22T16:01:29.580Z,3.70
2023-05-22T16:04:02.276Z,3.60
2023-05-22T16:06:34.408Z,3.30
2023-05-22T16:09:07.131Z,3.50
2023-05-22T16:11:42.138Z,4.10
2023-05-22T16:14:14.351Z,4.10
2023-05-22T16:16:46.507Z,3.70
2023-05-22T16:19:18.686Z,3.40
2023-05-22T16:21:50.804Z,3.50
2023-05-22T16:24:42.064Z,4.20
2023-05-22T16:27:14.194Z,3.40
2023-05-22T16:29:46.221Z,4.10
2023-05-22T16:32:42.086Z,4.00
2023-05-22T16:35:14.465Z,3.50
2023-05-22T16:38:14.786Z,4.00
2023-05-22T16:40:47.416Z,4.00
2023-05-22T16:43:21.857Z,4.00
2023-05-22T16:45:54.346Z,3.40
2023-05-22T16:48:27.127Z,4.00
2023-05-22T16:50:59.218Z,3.70
2023-05-22T16:53:31.344Z,3.80
2023-05-22T16:56:03.548Z,3.60
2023-05-22T16:58:35.745Z,3.60
2023-05-22T17:01:10.874Z,3.80
2023-05-22T17:03:43.809Z,3.60
2023-05-22T17:06:20.137Z,3.80
2023-05-22T17:08:53.154Z,4.20
2023-05-22T17:11:26.161Z,4.10
2023-05-22T17:13:58.293Z,4.10
2023-05-22T17:16:38.754Z,3.80
2023-05-22T17:19:11.197Z,3.90
2023-05-22T17:21:44.709Z,4.30
2023-05-22T17:24:16.992Z,4.00
2023-05-22T17:26:49.207Z,5.20
2023-05-22T17:29:22.116Z,3.90
2023-05-22T17:31:54.616Z,4.10
2023-05-22T17:34:34.347Z,4.10
2023-05-22T17:37:06.662Z,3.60
2023-05-22T17:39:39.098Z,4.20
2023-05-22T17:42:11.218Z,4.10
2023-05-22T17:44:47.766Z,4.20
2023-05-22T17:47:20.436Z,4.60
2023-05-22T17:49:52.550Z,3.90
2023-05-22T17:52:27.497Z,4.60
2023-05-22T17:58:32.682Z,4.90
2023-05-22T18:01:04.964Z,5.40
2023-05-22T18:03:37.252Z,4.60
2023-05-22T18:06:09.911Z,6.60
2023-05-22T18:08:43.959Z,7.00
2023-05-22T18:11:16.369Z,6.90
2023-05-22T18:13:48.911Z,7.80
2023-05-22T18:16:21.934Z,9.00
2023-05-22T18:18:54.449Z,7.90
2023-05-22T18:21:26.955Z,7.10
2023-05-22T18:23:59.646Z,6.60
2023-05-22T18:26:32.432Z,5.80
2023-05-22T18:29:15.020Z,5.80
2023-05-22T18:36:20.339Z,5.60
2023-05-22T18:43:36.488Z,4.80
2023-05-22T18:46:54.399Z,5.70
2023-05-22T18:49:33.405Z,4.70
2023-05-22T18:56:39.432Z,5.60
2023-05-22T18:59:18.546Z,5.70
2023-05-22T19:10:59.879Z,5.80
2023-05-22T19:13:32.913Z,5.60
2023-05-22T19:16:05.812Z,6.20
2023-05-22T19:18:38.565Z,6.90
2023-05-22T19:21:11.915Z,6.50
2023-05-22T19:23:44.111Z,6.60
2023-05-22T19:26:17.403Z,6.90
2023-05-22T19:28:49.635Z,7.50
2023-05-22T19:31:22.087Z,7.10
2023-05-22T19:33:54.187Z,7.70
2023-05-22T19:36:26.351Z,7.40
2023-05-22T19:39:00.004Z,7.40
2023-05-22T19:41:32.136Z,8.70
2023-05-22T19:44:05.333Z,8.10
2023-05-22T19:46:37.352Z,9.20
2023-05-22T19:49:09.496Z,9.00
2023-05-22T19:51:43.551Z,9.50
2023-05-22T19:54:16.474Z,9.50
2023-05-22T19:56:48.465Z,9.10
2023-05-22T19:59:21.542Z,9.50
2023-05-22T20:01:54.067Z,10.00
2023-05-22T20:04:59.503Z,9.70
2023-05-22T20:07:31.723Z,8.90
2023-05-22T20:10:06.516Z,9.20
2023-05-22T20:26:05.455Z,11.60
2023-05-22T20:28:47.752Z,11.70
2023-05-22T20:31:19.855Z,10.00
2023-05-22T20:34:26.662Z,9.30
2023-05-22T20:37:06.645Z,10.20
2023-05-22T20:39:38.769Z,10.40
2023-05-22T20:46:35.584Z,10.40
2023-05-22T20:49:07.702Z,11.00
2023-05-22T20:51:46.729Z,11.20
2023-05-22T20:54:18.918Z,10.70
2023-05-22T20:57:25.255Z,10.20
2023-05-22T21:03:58.912Z,8.80
2023-05-22T21:06:31.555Z,9.90
2023-05-22T21:09:10.273Z,11.00
2023-05-22T21:11:42.748Z,9.40
2023-05-22T21:14:14.849Z,10.00
2023-05-22T21:30:31.666Z,8.30
2023-05-22T21:33:05.121Z,9.90
2023-05-22T21:35:37.177Z,9.30
2023-05-22T21:38:15.760Z,10.30
2023-05-22T21:40:48.233Z,9.50
2023-05-22T21:47:31.572Z,9.10
2023-05-22T21:50:03.685Z,9.30
2023-05-22T21:52:42.270Z,9.20
2023-05-22T21:55:14.476Z,10.40
2023-05-22T21:57:46.705Z,9.30
2023-05-22T22:00:20.473Z,8.80
2023-05-22T22:11:05.546Z,8.60
2023-05-22T22:13:38.267Z,9.10
2023-05-22T22:16:16.605Z,8.90
2023-05-22T22:18:50.394Z,9.30
2023-05-22T22:21:22.923Z,9.00
2023-05-22T22:23:55.187Z,9.30
2023-05-22T22:30:21.537Z,8.40
2023-05-22T22:37:26.508Z,8.70
2023-05-22T22:40:05.723Z,9.10
2023-05-22T22:51:43.096Z,8.00
2023-05-22T22:54:56.672Z,8.70
2023-05-22T22:57:32.330Z,8.30
2023-05-22T23:00:05.698Z,9.00
2023-05-22T23:07:24.302Z,10.50
2023-05-22T23:18:14.010Z,9.30
2023-05-22T23:20:46.386Z,8.90
2023-05-22T23:28:42.673Z,8.70
2023-05-22T23:31:14.900Z,8.40
2023-05-22T23:38:57.577Z,9.60
2023-05-22T23:41:29.877Z,9.00
2023-05-22T23:44:02.104Z,9.00
2023-05-22T23:46:34.298Z,8.90
2023-05-22T23:49:56.708Z,8.50
2023-05-22T23:52:35.477Z,9.10
2023-05-22T23:55:09.452Z,8.80
2023-05-22T23:57:48.535Z,8.80
